sensor_id;sensor_type;location;lat;lon;timestamp;P1;durP1;ratioP1;P2;durP2;ratioP2
4821;SDS011;2425;47.794;13.068;2023-09-18T00:00:07;2.77;;;2.67;;
4821;SDS011;2425;47.794;13.068;2023-09-18T00:02:37;3.50;;;3.30;;
4821;SDS011;2425;47.794;13.068;2023-09-18T00:05:06;3.30;;;3.07;;
4821;SDS011;2425;47.794;13.068;2023-09-18T00:07:33;3.10;;;2.90;;
4821;SDS011;2425;47.794;13.068;2023-09-18T00:09:59;8.23;;;2.80;;
4821;SDS011;2425;47.794;13.068;2023-09-18T00:12:26;3.00;;;2.80;;
4821;SDS011;2425;47.794;13.068;2023-09-18T00:14:53;4.00;;;3.40;;
4821;SDS011;2425;47.794;13.068;2023-09-18T00:17:19;3.00;;;2.80;;
4821;SDS011;2425;47.794;13.068;2023-09-18T00:19:48;3.00;;;2.80;;
4821;SDS011;2425;47.794;13.068;2023-09-18T00:22:18;2.97;;;2.80;;
4821;SDS011;2425;47.794;13.068;2023-09-18T00:24:44;2.97;;;2.87;;
4821;SDS011;2425;47.794;13.068;2023-09-18T00:27:11;2.90;;;2.80;;
4821;SDS011;2425;47.794;13.068;2023-09-18T00:29:38;3.10;;;2.90;;
4821;SDS011;2425;47.794;13.068;2023-09-18T00:32:05;3.03;;;2.93;;
4821;SDS011;2425;47.794;13.068;2023-09-18T00:34:32;3.37;;;3.27;;
4821;SDS011;2425;47.794;13.068;2023-09-18T00:36:59;2.80;;;2.60;;
4821;SDS011;2425;47.794;13.068;2023-09-18T00:39:27;6.47;;;2.90;;
4821;SDS011;2425;47.794;13.068;2023-09-18T00:41:54;13.43;;;3.23;;
4821;SDS011;2425;47.794;13.068;2023-09-18T00:44:21;2.87;;;2.77;;
4821;SDS011;2425;47.794;13.068;2023-09-18T00:46:48;3.40;;;3.17;;
4821;SDS011;2425;47.794;13.068;2023-09-18T00:49:15;2.90;;;2.80;;
4821;SDS011;2425;47.794;13.068;2023-09-18T00:51:43;3.30;;;3.20;;
4821;SDS011;2425;47.794;13.068;2023-09-18T00:54:09;3.13;;;2.93;;
4821;SDS011;2425;47.794;13.068;2023-09-18T00:56:38;2.70;;;2.60;;
4821;SDS011;2425;47.794;13.068;2023-09-18T00:59:04;3.07;;;2.80;;
4821;SDS011;2425;47.794;13.068;2023-09-18T01:01:31;2.70;;;2.60;;
4821;SDS011;2425;47.794;13.068;2023-09-18T01:03:58;3.10;;;2.73;;
4821;SDS011;2425;47.794;13.068;2023-09-18T01:06:25;2.67;;;2.57;;
4821;SDS011;2425;47.794;13.068;2023-09-18T01:08:55;2.70;;;2.60;;
4821;SDS011;2425;47.794;13.068;2023-09-18T01:11:24;3.47;;;2.70;;
4821;SDS011;2425;47.794;13.068;2023-09-18T01:13:58;4.57;;;2.30;;
4821;SDS011;2425;47.794;13.068;2023-09-18T01:16:32;2.40;;;2.30;;
4821;SDS011;2425;47.794;13.068;2023-09-18T01:19:03;2.70;;;2.50;;
4821;SDS011;2425;47.794;13.068;2023-09-18T01:21:30;2.43;;;2.23;;
4821;SDS011;2425;47.794;13.068;2023-09-18T01:23:58;2.90;;;2.80;;
4821;SDS011;2425;47.794;13.068;2023-09-18T01:26:24;3.80;;;2.37;;
4821;SDS011;2425;47.794;13.068;2023-09-18T01:28:51;3.00;;;2.80;;
4821;SDS011;2425;47.794;13.068;2023-09-18T01:31:18;3.10;;;2.90;;
4821;SDS011;2425;47.794;13.068;2023-09-18T01:33:45;2.97;;;2.77;;
4821;SDS011;2425;47.794;13.068;2023-09-18T01:36:13;2.63;;;2.53;;
4821;SDS011;2425;47.794;13.068;2023-09-18T01:38:41;2.90;;;2.70;;
4821;SDS011;2425;47.794;13.068;2023-09-18T01:41:10;2.63;;;2.53;;
4821;SDS011;2425;47.794;13.068;2023-09-18T01:43:37;3.30;;;3.07;;
4821;SDS011;2425;47.794;13.068;2023-09-18T01:46:03;2.63;;;2.43;;
4821;SDS011;2425;47.794;13.068;2023-09-18T01:48:30;2.57;;;2.47;;
4821;SDS011;2425;47.794;13.068;2023-09-18T01:50:57;2.40;;;2.30;;
4821;SDS011;2425;47.794;13.068;2023-09-18T01:53:24;2.60;;;2.50;;
4821;SDS011;2425;47.794;13.068;2023-09-18T01:55:51;5.03;;;2.47;;
4821;SDS011;2425;47.794;13.068;2023-09-18T01:58:19;2.73;;;2.53;;
4821;SDS011;2425;47.794;13.068;2023-09-18T02:00:46;2.40;;;2.30;;
4821;SDS011;2425;47.794;13.068;2023-09-18T02:03:12;2.57;;;2.47;;
4821;SDS011;2425;47.794;13.068;2023-09-18T02:05:43;2.60;;;2.50;;
4821;SDS011;2425;47.794;13.068;2023-09-18T02:08:09;2.70;;;2.50;;
4821;SDS011;2425;47.794;13.068;2023-09-18T02:10:36;2.47;;;2.27;;
4821;SDS011;2425;47.794;13.068;2023-09-18T02:13:03;2.30;;;2.10;;
4821;SDS011;2425;47.794;13.068;2023-09-18T02:15:31;2.60;;;2.40;;
4821;SDS011;2425;47.794;13.068;2023-09-18T02:18:00;2.47;;;2.37;;
4821;SDS011;2425;47.794;13.068;2023-09-18T02:20:27;2.40;;;2.30;;
4821;SDS011;2425;47.794;13.068;2023-09-18T02:22:54;2.50;;;2.40;;
4821;SDS011;2425;47.794;13.068;2023-09-18T02:25:20;2.60;;;2.40;;
4821;SDS011;2425;47.794;13.068;2023-09-18T02:27:47;2.13;;;2.03;;
4821;SDS011;2425;47.794;13.068;2023-09-18T02:30:14;3.40;;;2.57;;
4821;SDS011;2425;47.794;13.068;2023-09-18T02:32:43;4.03;;;2.67;;
4821;SDS011;2425;47.794;13.068;2023-09-18T02:35:09;3.00;;;2.80;;
4821;SDS011;2425;47.794;13.068;2023-09-18T02:37:36;2.50;;;2.40;;
4821;SDS011;2425;47.794;13.068;2023-09-18T02:40:03;2.40;;;2.30;;
4821;SDS011;2425;47.794;13.068;2023-09-18T02:42:32;2.50;;;2.40;;
4821;SDS011;2425;47.794;13.068;2023-09-18T02:44:59;2.40;;;2.30;;
4821;SDS011;2425;47.794;13.068;2023-09-18T02:47:26;2.50;;;2.40;;
4821;SDS011;2425;47.794;13.068;2023-09-18T02:49:54;2.40;;;2.30;;
4821;SDS011;2425;47.794;13.068;2023-09-18T02:52:21;2.37;;;2.17;;
4821;SDS011;2425;47.794;13.068;2023-09-18T02:54:47;2.40;;;2.30;;
4821;SDS011;2425;47.794;13.068;2023-09-18T02:57:14;2.63;;;2.50;;
4821;SDS011;2425;47.794;13.068;2023-09-18T02:59:41;2.27;;;2.07;;
4821;SDS011;2425;47.794;13.068;2023-09-18T03:02:07;2.67;;;1.83;;
4821;SDS011;2425;47.794;13.068;2023-09-18T03:04:34;2.10;;;2.10;;
4821;SDS011;2425;47.794;13.068;2023-09-18T03:07:02;3.30;;;2.37;;
4821;SDS011;2425;47.794;13.068;2023-09-18T03:09:30;2.27;;;2.10;;
4821;SDS011;2425;47.794;13.068;2023-09-18T03:11:56;2.33;;;2.23;;
4821;SDS011;2425;47.794;13.068;2023-09-18T03:14:23;3.17;;;2.60;;
4821;SDS011;2425;47.794;13.068;2023-09-18T03:16:50;2.50;;;2.40;;
4821;SDS011;2425;47.794;13.068;2023-09-18T03:19:17;4.10;;;2.00;;
4821;SDS011;2425;47.794;13.068;2023-09-18T03:21:43;2.43;;;2.30;;
4821;SDS011;2425;47.794;13.068;2023-09-18T03:24:11;2.23;;;2.10;;
4821;SDS011;2425;47.794;13.068;2023-09-18T03:26:38;2.33;;;2.23;;
4821;SDS011;2425;47.794;13.068;2023-09-18T03:29:05;2.27;;;2.10;;
4821;SDS011;2425;47.794;13.068;2023-09-18T03:31:31;2.10;;;2.00;;
4821;SDS011;2425;47.794;13.068;2023-09-18T03:33:58;2.20;;;2.03;;
4821;SDS011;2425;47.794;13.068;2023-09-18T03:36:25;2.50;;;2.30;;
4821;SDS011;2425;47.794;13.068;2023-09-18T03:38:52;3.83;;;1.87;;
4821;SDS011;2425;47.794;13.068;2023-09-18T03:41:20;3.20;;;2.10;;
4821;SDS011;2425;47.794;13.068;2023-09-18T03:43:46;2.00;;;2.00;;
4821;SDS011;2425;47.794;13.068;2023-09-18T03:46:14;2.73;;;2.33;;
4821;SDS011;2425;47.794;13.068;2023-09-18T03:48:41;2.37;;;2.27;;
4821;SDS011;2425;47.794;13.068;2023-09-18T03:51:07;2.37;;;2.20;;
4821;SDS011;2425;47.794;13.068;2023-09-18T03:53:35;2.53;;;2.33;;
4821;SDS011;2425;47.794;13.068;2023-09-18T03:56:02;3.07;;;2.27;;
4821;SDS011;2425;47.794;13.068;2023-09-18T03:58:30;2.30;;;2.20;;
4821;SDS011;2425;47.794;13.068;2023-09-18T04:00:56;2.60;;;2.40;;
4821;SDS011;2425;47.794;13.068;2023-09-18T04:03:23;2.43;;;2.33;;
4821;SDS011;2425;47.794;13.068;2023-09-18T04:05:50;3.10;;;2.57;;
4821;SDS011;2425;47.794;13.068;2023-09-18T04:08:16;6.87;;;2.43;;
4821;SDS011;2425;47.794;13.068;2023-09-18T04:10:43;2.20;;;2.07;;
4821;SDS011;2425;47.794;13.068;2023-09-18T04:13:11;3.87;;;2.00;;
4821;SDS011;2425;47.794;13.068;2023-09-18T04:15:39;3.07;;;2.77;;
4821;SDS011;2425;47.794;13.068;2023-09-18T04:18:05;2.50;;;2.30;;
4821;SDS011;2425;47.794;13.068;2023-09-18T04:20:32;2.10;;;2.00;;
4821;SDS011;2425;47.794;13.068;2023-09-18T04:23:17;2.63;;;2.40;;
4821;SDS011;2425;47.794;13.068;2023-09-18T04:25:46;2.13;;;2.03;;
4821;SDS011;2425;47.794;13.068;2023-09-18T04:28:13;2.60;;;2.47;;
4821;SDS011;2425;47.794;13.068;2023-09-18T04:30:41;3.17;;;2.13;;
4821;SDS011;2425;47.794;13.068;2023-09-18T04:33:08;2.40;;;2.20;;
4821;SDS011;2425;47.794;13.068;2023-09-18T04:35:34;3.53;;;2.50;;
4821;SDS011;2425;47.794;13.068;2023-09-18T04:38:03;2.00;;;1.90;;
4821;SDS011;2425;47.794;13.068;2023-09-18T04:40:29;3.77;;;2.43;;
4821;SDS011;2425;47.794;13.068;2023-09-18T04:42:57;5.10;;;2.80;;
4821;SDS011;2425;47.794;13.068;2023-09-18T04:45:24;1.97;;;1.90;;
4821;SDS011;2425;47.794;13.068;2023-09-18T04:47:52;2.53;;;2.33;;
4821;SDS011;2425;47.794;13.068;2023-09-18T04:50:19;6.50;;;2.87;;
4821;SDS011;2425;47.794;13.068;2023-09-18T04:52:46;4.77;;;2.17;;
4821;SDS011;2425;47.794;13.068;2023-09-18T04:55:13;2.40;;;2.30;;
4821;SDS011;2425;47.794;13.068;2023-09-18T04:57:39;4.27;;;2.20;;
4821;SDS011;2425;47.794;13.068;2023-09-18T05:00:06;2.27;;;2.17;;
4821;SDS011;2425;47.794;13.068;2023-09-18T05:02:37;2.10;;;2.00;;
4821;SDS011;2425;47.794;13.068;2023-09-18T05:05:06;2.67;;;2.20;;
4821;SDS011;2425;47.794;13.068;2023-09-18T05:07:34;2.13;;;2.03;;
4821;SDS011;2425;47.794;13.068;2023-09-18T05:10:01;3.10;;;2.00;;
4821;SDS011;2425;47.794;13.068;2023-09-18T05:12:29;3.23;;;2.50;;
4821;SDS011;2425;47.794;13.068;2023-09-18T05:14:57;3.63;;;2.43;;
4821;SDS011;2425;47.794;13.068;2023-09-18T05:17:38;2.20;;;2.00;;
4821;SDS011;2425;47.794;13.068;2023-09-18T05:20:09;4.00;;;2.40;;
4821;SDS011;2425;47.794;13.068;2023-09-18T05:22:38;9.47;;;2.87;;
4821;SDS011;2425;47.794;13.068;2023-09-18T05:25:05;2.97;;;2.27;;
4821;SDS011;2425;47.794;13.068;2023-09-18T05:27:33;2.60;;;2.40;;
4821;SDS011;2425;47.794;13.068;2023-09-18T05:29:59;2.50;;;2.30;;
4821;SDS011;2425;47.794;13.068;2023-09-18T05:32:26;2.30;;;2.13;;
4821;SDS011;2425;47.794;13.068;2023-09-18T05:34:53;2.40;;;2.30;;
4821;SDS011;2425;47.794;13.068;2023-09-18T05:37:21;3.47;;;2.23;;
4821;SDS011;2425;47.794;13.068;2023-09-18T05:39:47;2.43;;;2.23;;
4821;SDS011;2425;47.794;13.068;2023-09-18T05:42:14;2.63;;;2.40;;
4821;SDS011;2425;47.794;13.068;2023-09-18T05:44:41;2.47;;;2.27;;
4821;SDS011;2425;47.794;13.068;2023-09-18T05:47:17;4.63;;;2.10;;
4821;SDS011;2425;47.794;13.068;2023-09-18T05:49:44;3.63;;;1.90;;
4821;SDS011;2425;47.794;13.068;2023-09-18T05:52:11;2.57;;;2.37;;
4821;SDS011;2425;47.794;13.068;2023-09-18T05:54:39;2.77;;;2.30;;
4821;SDS011;2425;47.794;13.068;2023-09-18T05:57:05;2.30;;;2.10;;
4821;SDS011;2425;47.794;13.068;2023-09-18T05:59:32;4.60;;;2.53;;
4821;SDS011;2425;47.794;13.068;2023-09-18T06:01:59;2.87;;;2.30;;
4821;SDS011;2425;47.794;13.068;2023-09-18T06:04:26;2.87;;;2.50;;
4821;SDS011;2425;47.794;13.068;2023-09-18T06:06:52;2.87;;;2.40;;
4821;SDS011;2425;47.794;13.068;2023-09-18T06:09:19;3.07;;;2.30;;
4821;SDS011;2425;47.794;13.068;2023-09-18T06:11:47;3.43;;;2.40;;
4821;SDS011;2425;47.794;13.068;2023-09-18T06:14:14;3.67;;;2.63;;
4821;SDS011;2425;47.794;13.068;2023-09-18T06:16:41;3.83;;;2.53;;
4821;SDS011;2425;47.794;13.068;2023-09-18T06:19:08;3.80;;;2.50;;
4821;SDS011;2425;47.794;13.068;2023-09-18T06:21:34;2.27;;;2.07;;
4821;SDS011;2425;47.794;13.068;2023-09-18T06:24:01;4.37;;;2.40;;
4821;SDS011;2425;47.794;13.068;2023-09-18T06:26:28;2.77;;;2.57;;
4821;SDS011;2425;47.794;13.068;2023-09-18T06:28:56;4.10;;;2.23;;
4821;SDS011;2425;47.794;13.068;2023-09-18T06:31:22;2.67;;;2.47;;
4821;SDS011;2425;47.794;13.068;2023-09-18T06:33:49;4.30;;;2.50;;
4821;SDS011;2425;47.794;13.068;2023-09-18T06:36:16;3.50;;;2.67;;
4821;SDS011;2425;47.794;13.068;2023-09-18T06:38:43;2.13;;;2.03;;
4821;SDS011;2425;47.794;13.068;2023-09-18T06:41:09;2.77;;;2.47;;
4821;SDS011;2425;47.794;13.068;2023-09-18T06:43:36;2.80;;;2.40;;
4821;SDS011;2425;47.794;13.068;2023-09-18T06:46:06;2.53;;;2.33;;
4821;SDS011;2425;47.794;13.068;2023-09-18T06:48:33;3.77;;;2.50;;
4821;SDS011;2425;47.794;13.068;2023-09-18T06:50:59;3.53;;;2.60;;
4821;SDS011;2425;47.794;13.068;2023-09-18T06:53:26;4.17;;;2.37;;
4821;SDS011;2425;47.794;13.068;2023-09-18T06:55:54;2.87;;;2.67;;
4821;SDS011;2425;47.794;13.068;2023-09-18T06:58:21;2.60;;;2.40;;
4821;SDS011;2425;47.794;13.068;2023-09-18T07:00:47;2.47;;;2.37;;
4821;SDS011;2425;47.794;13.068;2023-09-18T07:03:16;2.87;;;2.60;;
4821;SDS011;2425;47.794;13.068;2023-09-18T07:05:43;2.53;;;2.43;;
4821;SDS011;2425;47.794;13.068;2023-09-18T07:08:11;2.57;;;2.47;;
4821;SDS011;2425;47.794;13.068;2023-09-18T07:10:38;2.88;;;2.67;;
4821;SDS011;2425;47.794;13.068;2023-09-18T07:13:05;2.57;;;2.47;;
4821;SDS011;2425;47.794;13.068;2023-09-18T07:15:31;2.53;;;2.37;;
4821;SDS011;2425;47.794;13.068;2023-09-18T07:17:58;2.37;;;2.27;;
4821;SDS011;2425;47.794;13.068;2023-09-18T07:20:26;6.07;;;2.60;;
4821;SDS011;2425;47.794;13.068;2023-09-18T07:22:53;3.50;;;2.60;;
4821;SDS011;2425;47.794;13.068;2023-09-18T07:25:20;2.60;;;2.50;;
4821;SDS011;2425;47.794;13.068;2023-09-18T07:27:47;2.80;;;2.60;;
4821;SDS011;2425;47.794;13.068;2023-09-18T07:30:14;3.97;;;2.83;;
4821;SDS011;2425;47.794;13.068;2023-09-18T07:32:42;2.50;;;2.30;;
4821;SDS011;2425;47.794;13.068;2023-09-18T07:35:09;3.10;;;2.90;;
4821;SDS011;2425;47.794;13.068;2023-09-18T07:37:37;2.87;;;2.70;;
4821;SDS011;2425;47.794;13.068;2023-09-18T07:40:05;2.80;;;2.63;;
4821;SDS011;2425;47.794;13.068;2023-09-18T07:42:33;3.10;;;2.90;;
4821;SDS011;2425;47.794;13.068;2023-09-18T07:44:59;3.03;;;2.83;;
4821;SDS011;2425;47.794;13.068;2023-09-18T07:47:26;4.03;;;2.90;;
4821;SDS011;2425;47.794;13.068;2023-09-18T07:49:53;2.90;;;2.70;;
4821;SDS011;2425;47.794;13.068;2023-09-18T07:52:20;2.60;;;2.50;;
4821;SDS011;2425;47.794;13.068;2023-09-18T07:54:48;3.33;;;2.90;;
4821;SDS011;2425;47.794;13.068;2023-09-18T07:57:15;4.13;;;2.90;;
4821;SDS011;2425;47.794;13.068;2023-09-18T07:59:42;3.63;;;3.00;;
4821;SDS011;2425;47.794;13.068;2023-09-18T08:02:09;3.60;;;3.30;;
4821;SDS011;2425;47.794;13.068;2023-09-18T08:04:35;3.37;;;3.07;;
4821;SDS011;2425;47.794;13.068;2023-09-18T08:07:02;3.97;;;2.90;;
4821;SDS011;2425;47.794;13.068;2023-09-18T08:09:31;3.20;;;2.83;;
4821;SDS011;2425;47.794;13.068;2023-09-18T08:12:02;3.43;;;2.90;;
4821;SDS011;2425;47.794;13.068;2023-09-18T08:14:29;4.97;;;2.97;;
4821;SDS011;2425;47.794;13.068;2023-09-18T08:16:56;3.90;;;3.60;;
4821;SDS011;2425;47.794;13.068;2023-09-18T08:19:23;4.00;;;2.77;;
4821;SDS011;2425;47.794;13.068;2023-09-18T08:21:51;5.00;;;2.87;;
4821;SDS011;2425;47.794;13.068;2023-09-18T08:24:18;3.87;;;3.50;;
4821;SDS011;2425;47.794;13.068;2023-09-18T08:26:45;2.67;;;2.47;;
4821;SDS011;2425;47.794;13.068;2023-09-18T08:29:13;3.37;;;3.00;;
4821;SDS011;2425;47.794;13.068;2023-09-18T08:31:40;3.07;;;2.87;;
4821;SDS011;2425;47.794;13.068;2023-09-18T08:34:07;4.97;;;3.60;;
4821;SDS011;2425;47.794;13.068;2023-09-18T08:36:33;3.00;;;2.80;;
4821;SDS011;2425;47.794;13.068;2023-09-18T08:39:00;3.27;;;3.00;;
4821;SDS011;2425;47.794;13.068;2023-09-18T08:41:28;4.70;;;3.03;;
4821;SDS011;2425;47.794;13.068;2023-09-18T08:43:59;3.57;;;3.27;;
4821;SDS011;2425;47.794;13.068;2023-09-18T08:46:30;3.30;;;3.00;;
4821;SDS011;2425;47.794;13.068;2023-09-18T08:48:57;3.67;;;2.70;;
4821;SDS011;2425;47.794;13.068;2023-09-18T08:51:25;3.17;;;2.87;;
4821;SDS011;2425;47.794;13.068;2023-09-18T08:53:52;3.43;;;3.10;;
4821;SDS011;2425;47.794;13.068;2023-09-18T08:56:19;2.93;;;2.83;;
4821;SDS011;2425;47.794;13.068;2023-09-18T08:58:47;4.00;;;3.47;;
4821;SDS011;2425;47.794;13.068;2023-09-18T09:01:15;3.40;;;3.13;;
4821;SDS011;2425;47.794;13.068;2023-09-18T09:03:43;4.20;;;3.60;;
4821;SDS011;2425;47.794;13.068;2023-09-18T09:06:11;3.83;;;3.53;;
4821;SDS011;2425;47.794;13.068;2023-09-18T09:08:42;4.50;;;3.87;;
4821;SDS011;2425;47.794;13.068;2023-09-18T09:11:22;3.63;;;3.40;;
4821;SDS011;2425;47.794;13.068;2023-09-18T09:14:09;3.33;;;3.03;;
4821;SDS011;2425;47.794;13.068;2023-09-18T09:16:46;3.30;;;3.00;;
4821;SDS011;2425;47.794;13.068;2023-09-18T09:19:15;3.43;;;2.67;;
4821;SDS011;2425;47.794;13.068;2023-09-18T09:21:42;2.97;;;2.77;;
4821;SDS011;2425;47.794;13.068;2023-09-18T09:24:09;3.30;;;3.10;;
4821;SDS011;2425;47.794;13.068;2023-09-18T09:26:38;3.33;;;3.13;;
4821;SDS011;2425;47.794;13.068;2023-09-18T09:29:14;9.10;;;3.30;;
4821;SDS011;2425;47.794;13.068;2023-09-18T09:31:43;5.63;;;3.20;;
4821;SDS011;2425;47.794;13.068;2023-09-18T09:34:10;3.23;;;3.13;;
4821;SDS011;2425;47.794;13.068;2023-09-18T09:36:38;3.30;;;3.10;;
4821;SDS011;2425;47.794;13.068;2023-09-18T09:39:17;3.13;;;2.93;;
4821;SDS011;2425;47.794;13.068;2023-09-18T09:41:46;3.40;;;3.10;;
4821;SDS011;2425;47.794;13.068;2023-09-18T09:44:14;3.33;;;3.07;;
4821;SDS011;2425;47.794;13.068;2023-09-18T09:46:45;3.50;;;3.20;;
4821;SDS011;2425;47.794;13.068;2023-09-18T09:49:12;2.90;;;2.70;;
4821;SDS011;2425;47.794;13.068;2023-09-18T09:51:42;3.40;;;3.20;;
4821;SDS011;2425;47.794;13.068;2023-09-18T09:54:08;4.83;;;3.47;;
4821;SDS011;2425;47.794;13.068;2023-09-18T09:56:40;4.10;;;3.13;;
4821;SDS011;2425;47.794;13.068;2023-09-18T09:59:08;4.97;;;3.07;;
4821;SDS011;2425;47.794;13.068;2023-09-18T10:01:36;4.97;;;3.10;;
4821;SDS011;2425;47.794;13.068;2023-09-18T10:04:04;2.50;;;2.40;;
4821;SDS011;2425;47.794;13.068;2023-09-18T10:06:33;6.30;;;3.27;;
4821;SDS011;2425;47.794;13.068;2023-09-18T10:09:03;3.87;;;3.10;;
4821;SDS011;2425;47.794;13.068;2023-09-18T10:11:32;5.53;;;3.20;;
4821;SDS011;2425;47.794;13.068;2023-09-18T10:14:03;14.80;;;3.10;;
4821;SDS011;2425;47.794;13.068;2023-09-18T10:16:32;4.60;;;3.20;;
4821;SDS011;2425;47.794;13.068;2023-09-18T10:19:03;2.77;;;2.57;;
4821;SDS011;2425;47.794;13.068;2023-09-18T10:21:36;2.97;;;2.77;;
4821;SDS011;2425;47.794;13.068;2023-09-18T10:24:09;3.40;;;3.13;;
4821;SDS011;2425;47.794;13.068;2023-09-18T10:26:41;4.03;;;3.10;;
4821;SDS011;2425;47.794;13.068;2023-09-18T10:29:14;5.63;;;2.97;;
4821;SDS011;2425;47.794;13.068;2023-09-18T10:31:43;4.73;;;3.40;;
4821;SDS011;2425;47.794;13.068;2023-09-18T10:34:11;3.03;;;2.60;;
4821;SDS011;2425;47.794;13.068;2023-09-18T10:36:39;3.50;;;3.20;;
4821;SDS011;2425;47.794;13.068;2023-09-18T10:39:09;7.07;;;2.90;;
4821;SDS011;2425;47.794;13.068;2023-09-18T10:41:37;4.03;;;2.90;;
4821;SDS011;2425;47.794;13.068;2023-09-18T10:44:05;4.17;;;3.00;;
4821;SDS011;2425;47.794;13.068;2023-09-18T10:46:32;3.77;;;2.73;;
4821;SDS011;2425;47.794;13.068;2023-09-18T10:48:59;5.77;;;2.97;;
4821;SDS011;2425;47.794;13.068;2023-09-18T10:51:28;3.00;;;2.80;;
4821;SDS011;2425;47.794;13.068;2023-09-18T10:53:56;4.03;;;2.87;;
4821;SDS011;2425;47.794;13.068;2023-09-18T10:56:24;5.83;;;2.50;;
4821;SDS011;2425;47.794;13.068;2023-09-18T10:58:55;5.37;;;3.33;;
4821;SDS011;2425;47.794;13.068;2023-09-18T11:01:23;3.00;;;2.70;;
4821;SDS011;2425;47.794;13.068;2023-09-18T11:03:52;2.40;;;2.30;;
4821;SDS011;2425;47.794;13.068;2023-09-18T11:06:19;3.00;;;2.70;;
4821;SDS011;2425;47.794;13.068;2023-09-18T11:09:00;3.30;;;3.00;;
4821;SDS011;2425;47.794;13.068;2023-09-18T11:11:30;5.10;;;3.03;;
4821;SDS011;2425;47.794;13.068;2023-09-18T11:14:01;6.20;;;2.77;;
4821;SDS011;2425;47.794;13.068;2023-09-18T11:16:35;3.87;;;2.77;;
4821;SDS011;2425;47.794;13.068;2023-09-18T11:19:16;3.90;;;3.50;;
4821;SDS011;2425;47.794;13.068;2023-09-18T11:21:44;3.13;;;2.87;;
4821;SDS011;2425;47.794;13.068;2023-09-18T11:24:15;5.73;;;2.80;;
4821;SDS011;2425;47.794;13.068;2023-09-18T11:26:44;4.50;;;3.27;;
4821;SDS011;2425;47.794;13.068;2023-09-18T11:29:13;4.00;;;2.97;;
4821;SDS011;2425;47.794;13.068;2023-09-18T11:31:45;3.43;;;3.00;;
4821;SDS011;2425;47.794;13.068;2023-09-18T11:34:13;4.30;;;3.30;;
4821;SDS011;2425;47.794;13.068;2023-09-18T11:36:40;3.40;;;3.03;;
4821;SDS011;2425;47.794;13.068;2023-09-18T11:39:07;3.90;;;3.47;;
4821;SDS011;2425;47.794;13.068;2023-09-18T11:41:35;3.67;;;3.37;;
4821;SDS011;2425;47.794;13.068;2023-09-18T11:47:02;3.33;;;2.97;;
4821;SDS011;2425;47.794;13.068;2023-09-18T11:49:29;3.30;;;3.00;;
4821;SDS011;2425;47.794;13.068;2023-09-18T11:51:57;4.30;;;2.97;;
4821;SDS011;2425;47.794;13.068;2023-09-18T11:54:25;3.50;;;3.23;;
4821;SDS011;2425;47.794;13.068;2023-09-18T11:56:52;5.23;;;3.30;;
4821;SDS011;2425;47.794;13.068;2023-09-18T11:59:19;4.83;;;3.10;;
4821;SDS011;2425;47.794;13.068;2023-09-18T12:02:03;5.70;;;3.00;;
4821;SDS011;2425;47.794;13.068;2023-09-18T12:04:33;3.50;;;3.20;;
4821;SDS011;2425;47.794;13.068;2023-09-18T12:07:00;3.20;;;3.00;;
4821;SDS011;2425;47.794;13.068;2023-09-18T12:09:28;3.87;;;2.90;;
4821;SDS011;2425;47.794;13.068;2023-09-18T12:11:55;4.00;;;3.37;;
4821;SDS011;2425;47.794;13.068;2023-09-18T12:14:22;4.17;;;3.77;;
4821;SDS011;2425;47.794;13.068;2023-09-18T12:16:50;4.27;;;3.60;;
4821;SDS011;2425;47.794;13.068;2023-09-18T12:19:17;5.00;;;2.80;;
4821;SDS011;2425;47.794;13.068;2023-09-18T12:21:45;4.23;;;2.97;;
4821;SDS011;2425;47.794;13.068;2023-09-18T12:24:14;3.50;;;3.20;;
4821;SDS011;2425;47.794;13.068;2023-09-18T12:26:41;7.53;;;3.33;;
4821;SDS011;2425;47.794;13.068;2023-09-18T12:29:08;4.47;;;3.37;;
4821;SDS011;2425;47.794;13.068;2023-09-18T12:31:35;4.53;;;3.40;;
4821;SDS011;2425;47.794;13.068;2023-09-18T12:34:03;5.17;;;3.20;;
4821;SDS011;2425;47.794;13.068;2023-09-18T12:36:32;10.50;;;3.47;;
4821;SDS011;2425;47.794;13.068;2023-09-18T12:38:59;4.10;;;3.70;;
4821;SDS011;2425;47.794;13.068;2023-09-18T12:41:26;8.27;;;3.33;;
4821;SDS011;2425;47.794;13.068;2023-09-18T12:43:53;3.07;;;2.70;;
4821;SDS011;2425;47.794;13.068;2023-09-18T12:46:20;4.17;;;2.93;;
4821;SDS011;2425;47.794;13.068;2023-09-18T12:48:47;7.10;;;3.47;;
4821;SDS011;2425;47.794;13.068;2023-09-18T12:51:15;5.83;;;3.10;;
4821;SDS011;2425;47.794;13.068;2023-09-18T12:53:47;4.07;;;3.57;;
4821;SDS011;2425;47.794;13.068;2023-09-18T12:56:14;6.13;;;2.97;;
4821;SDS011;2425;47.794;13.068;2023-09-18T12:58:41;3.87;;;3.30;;
4821;SDS011;2425;47.794;13.068;2023-09-18T13:01:08;8.37;;;3.20;;
4821;SDS011;2425;47.794;13.068;2023-09-18T13:03:41;6.10;;;2.93;;
4821;SDS011;2425;47.794;13.068;2023-09-18T13:06:12;4.73;;;2.90;;
4821;SDS011;2425;47.794;13.068;2023-09-18T13:08:45;3.10;;;2.80;;
4821;SDS011;2425;47.794;13.068;2023-09-18T13:11:12;3.90;;;2.93;;
4821;SDS011;2425;47.794;13.068;2023-09-18T13:13:41;3.97;;;3.33;;
4821;SDS011;2425;47.794;13.068;2023-09-18T13:16:08;3.40;;;3.20;;
4821;SDS011;2425;47.794;13.068;2023-09-18T13:18:35;4.80;;;3.20;;
4821;SDS011;2425;47.794;13.068;2023-09-18T13:21:08;4.17;;;3.83;;
4821;SDS011;2425;47.794;13.068;2023-09-18T13:23:36;3.73;;;3.00;;
4821;SDS011;2425;47.794;13.068;2023-09-18T13:26:04;4.07;;;3.10;;
4821;SDS011;2425;47.794;13.068;2023-09-18T13:28:32;4.07;;;3.00;;
4821;SDS011;2425;47.794;13.068;2023-09-18T13:31:00;3.50;;;3.20;;
4821;SDS011;2425;47.794;13.068;2023-09-18T13:33:30;3.50;;;2.97;;
4821;SDS011;2425;47.794;13.068;2023-09-18T13:35:57;3.83;;;3.30;;
4821;SDS011;2425;47.794;13.068;2023-09-18T13:38:23;5.20;;;3.13;;
4821;SDS011;2425;47.794;13.068;2023-09-18T13:40:51;5.03;;;3.07;;
4821;SDS011;2425;47.794;13.068;2023-09-18T13:43:21;4.07;;;3.27;;
4821;SDS011;2425;47.794;13.068;2023-09-18T13:45:48;4.43;;;3.00;;
4821;SDS011;2425;47.794;13.068;2023-09-18T13:48:16;3.80;;;3.07;;
4821;SDS011;2425;47.794;13.068;2023-09-18T13:50:44;3.30;;;3.00;;
4821;SDS011;2425;47.794;13.068;2023-09-18T13:53:11;3.97;;;2.93;;
4821;SDS011;2425;47.794;13.068;2023-09-18T13:55:38;3.10;;;2.53;;
4821;SDS011;2425;47.794;13.068;2023-09-18T13:58:05;7.03;;;3.27;;
4821;SDS011;2425;47.794;13.068;2023-09-18T14:00:33;3.80;;;3.40;;
4821;SDS011;2425;47.794;13.068;2023-09-18T14:03:00;6.87;;;3.50;;
4821;SDS011;2425;47.794;13.068;2023-09-18T14:05:28;2.60;;;2.40;;
4821;SDS011;2425;47.794;13.068;2023-09-18T14:07:55;4.40;;;3.10;;
4821;SDS011;2425;47.794;13.068;2023-09-18T14:10:25;6.83;;;3.13;;
4821;SDS011;2425;47.794;13.068;2023-09-18T14:12:52;2.83;;;2.63;;
4821;SDS011;2425;47.794;13.068;2023-09-18T14:15:18;2.87;;;2.67;;
4821;SDS011;2425;47.794;13.068;2023-09-18T14:17:47;6.20;;;3.10;;
4821;SDS011;2425;47.794;13.068;2023-09-18T14:20:14;3.10;;;2.37;;
4821;SDS011;2425;47.794;13.068;2023-09-18T14:22:43;7.23;;;3.17;;
4821;SDS011;2425;47.794;13.068;2023-09-18T14:25:10;3.50;;;2.60;;
4821;SDS011;2425;47.794;13.068;2023-09-18T14:27:37;6.70;;;3.10;;
4821;SDS011;2425;47.794;13.068;2023-09-18T14:30:04;2.87;;;2.67;;
4821;SDS011;2425;47.794;13.068;2023-09-18T14:32:32;3.07;;;2.53;;
4821;SDS011;2425;47.794;13.068;2023-09-18T14:35:02;3.97;;;2.80;;
4821;SDS011;2425;47.794;13.068;2023-09-18T14:37:30;10.50;;;3.40;;
4821;SDS011;2425;47.794;13.068;2023-09-18T14:39:57;3.20;;;2.33;;
4821;SDS011;2425;47.794;13.068;2023-09-18T14:42:23;5.00;;;2.70;;
4821;SDS011;2425;47.794;13.068;2023-09-18T14:44:50;4.20;;;2.73;;
4821;SDS011;2425;47.794;13.068;2023-09-18T14:47:17;4.00;;;2.50;;
4821;SDS011;2425;47.794;13.068;2023-09-18T14:49:43;7.03;;;2.93;;
4821;SDS011;2425;47.794;13.068;2023-09-18T14:52:13;2.57;;;2.37;;
4821;SDS011;2425;47.794;13.068;2023-09-18T14:54:41;4.67;;;2.30;;
4821;SDS011;2425;47.794;13.068;2023-09-18T14:57:07;5.37;;;2.67;;
4821;SDS011;2425;47.794;13.068;2023-09-18T14:59:35;2.00;;;1.80;;
4821;SDS011;2425;47.794;13.068;2023-09-18T15:02:03;3.47;;;2.70;;
4821;SDS011;2425;47.794;13.068;2023-09-18T15:04:30;3.83;;;2.20;;
4821;SDS011;2425;47.794;13.068;2023-09-18T15:06:57;3.43;;;2.60;;